sensor_id;sensor_type;location;lat;lon;timestamp;P1;durP1;ratioP1;P2;durP2;ratioP2
5696;SDS011;2873;50.966;7.210;2023-03-29T00:00:44;5.78;;;2.88;;
5696;SDS011;2873;50.966;7.210;2023-03-29T00:03:09;3.00;;;2.80;;
5696;SDS011;2873;50.966;7.210;2023-03-29T00:05:37;3.95;;;3.00;;
5696;SDS011;2873;50.966;7.210;2023-03-29T00:08:05;3.10;;;2.90;;
5696;SDS011;2873;50.966;7.210;2023-03-29T00:10:31;4.28;;;3.40;;
5696;SDS011;2873;50.966;7.210;2023-03-29T00:12:58;4.70;;;2.92;;
5696;SDS011;2873;50.966;7.210;2023-03-29T00:15:23;3.90;;;2.70;;
5696;SDS011;2873;50.966;7.210;2023-03-29T00:17:50;3.17;;;2.87;;
5696;SDS011;2873;50.966;7.210;2023-03-29T00:20:15;4.37;;;2.80;;
5696;SDS011;2873;50.966;7.210;2023-03-29T00:22:41;3.00;;;2.80;;
5696;SDS011;2873;50.966;7.210;2023-03-29T00:25:09;3.67;;;3.30;;
5696;SDS011;2873;50.966;7.210;2023-03-29T00:27:35;6.20;;;3.10;;
5696;SDS011;2873;50.966;7.210;2023-03-29T00:30:00;3.05;;;2.70;;
5696;SDS011;2873;50.966;7.210;2023-03-29T00:32:28;2.90;;;2.70;;
5696;SDS011;2873;50.966;7.210;2023-03-29T00:34:54;4.70;;;2.78;;
5696;SDS011;2873;50.966;7.210;2023-03-29T00:37:20;6.50;;;3.60;;
5696;SDS011;2873;50.966;7.210;2023-03-29T00:39:50;2.90;;;2.70;;
5696;SDS011;2873;50.966;7.210;2023-03-29T00:42:17;2.97;;;2.60;;
5696;SDS011;2873;50.966;7.210;2023-03-29T00:45:03;3.80;;;3.00;;
5696;SDS011;2873;50.966;7.210;2023-03-29T00:47:50;4.88;;;2.80;;
5696;SDS011;2873;50.966;7.210;2023-03-29T00:53:06;3.47;;;2.75;;
5696;SDS011;2873;50.966;7.210;2023-03-29T00:55:37;3.72;;;3.13;;
5696;SDS011;2873;50.966;7.210;2023-03-29T00:58:08;4.07;;;3.00;;
5696;SDS011;2873;50.966;7.210;2023-03-29T01:00:39;3.08;;;2.88;;
5696;SDS011;2873;50.966;7.210;2023-03-29T01:03:11;5.07;;;3.08;;
5696;SDS011;2873;50.966;7.210;2023-03-29T01:05:48;3.78;;;2.83;;
5696;SDS011;2873;50.966;7.210;2023-03-29T01:08:25;5.90;;;3.00;;
5696;SDS011;2873;50.966;7.210;2023-03-29T01:13:43;4.70;;;2.97;;
5696;SDS011;2873;50.966;7.210;2023-03-29T01:16:14;4.80;;;2.80;;
5696;SDS011;2873;50.966;7.210;2023-03-29T01:18:43;3.28;;;3.08;;
5696;SDS011;2873;50.966;7.210;2023-03-29T01:26:47;3.33;;;2.70;;
5696;SDS011;2873;50.966;7.210;2023-03-29T01:29:25;4.90;;;2.95;;
5696;SDS011;2873;50.966;7.210;2023-03-29T01:32:03;4.93;;;3.30;;
5696;SDS011;2873;50.966;7.210;2023-03-29T01:37:24;4.90;;;2.97;;
5696;SDS011;2873;50.966;7.210;2023-03-29T01:40:02;5.65;;;2.85;;
5696;SDS011;2873;50.966;7.210;2023-03-29T01:46:00;5.30;;;3.17;;
5696;SDS011;2873;50.966;7.210;2023-03-29T01:51:21;3.92;;;3.00;;
5696;SDS011;2873;50.966;7.210;2023-03-29T01:54:00;3.42;;;3.13;;
5696;SDS011;2873;50.966;7.210;2023-03-29T01:56:40;3.30;;;3.00;;
5696;SDS011;2873;50.966;7.210;2023-03-29T01:59:12;3.72;;;2.80;;
5696;SDS011;2873;50.966;7.210;2023-03-29T02:01:42;4.30;;;3.58;;
5696;SDS011;2873;50.966;7.210;2023-03-29T02:04:13;3.70;;;3.10;;
5696;SDS011;2873;50.966;7.210;2023-03-29T02:06:42;3.50;;;3.20;;
5696;SDS011;2873;50.966;7.210;2023-03-29T02:09:08;4.78;;;3.55;;
5696;SDS011;2873;50.966;7.210;2023-03-29T02:11:34;4.40;;;3.37;;
5696;SDS011;2873;50.966;7.210;2023-03-29T02:14:00;3.90;;;2.90;;
5696;SDS011;2873;50.966;7.210;2023-03-29T02:16:26;3.20;;;3.00;;
5696;SDS011;2873;50.966;7.210;2023-03-29T02:18:52;5.30;;;3.35;;
5696;SDS011;2873;50.966;7.210;2023-03-29T02:21:23;4.10;;;3.70;;
5696;SDS011;2873;50.966;7.210;2023-03-29T02:23:53;3.50;;;3.17;;
5696;SDS011;2873;50.966;7.210;2023-03-29T02:26:21;2.80;;;2.60;;
5696;SDS011;2873;50.966;7.210;2023-03-29T02:28:48;3.33;;;3.03;;
5696;SDS011;2873;50.966;7.210;2023-03-29T02:33:53;3.50;;;2.70;;
5696;SDS011;2873;50.966;7.210;2023-03-29T02:36:33;3.63;;;2.75;;
5696;SDS011;2873;50.966;7.210;2023-03-29T02:39:04;3.67;;;3.08;;
5696;SDS011;2873;50.966;7.210;2023-03-29T02:41:32;2.80;;;2.60;;
5696;SDS011;2873;50.966;7.210;2023-03-29T02:43:58;3.95;;;3.00;;
5696;SDS011;2873;50.966;7.210;2023-03-29T02:46:28;5.30;;;3.20;;
5696;SDS011;2873;50.966;7.210;2023-03-29T02:48:53;2.90;;;2.70;;
5696;SDS011;2873;50.966;7.210;2023-03-29T02:51:22;5.20;;;2.40;;
5696;SDS011;2873;50.966;7.210;2023-03-29T02:53:58;4.82;;;2.88;;
5696;SDS011;2873;50.966;7.210;2023-03-29T02:56:27;4.40;;;2.78;;
5696;SDS011;2873;50.966;7.210;2023-03-29T02:58:53;3.70;;;3.00;;
5696;SDS011;2873;50.966;7.210;2023-03-29T03:01:18;4.73;;;3.70;;
5696;SDS011;2873;50.966;7.210;2023-03-29T03:03:44;3.60;;;3.28;;
5696;SDS011;2873;50.966;7.210;2023-03-29T03:06:10;3.58;;;2.80;;
5696;SDS011;2873;50.966;7.210;2023-03-29T03:08:37;4.50;;;2.70;;
5696;SDS011;2873;50.966;7.210;2023-03-29T03:11:03;4.88;;;3.10;;
5696;SDS011;2873;50.966;7.210;2023-03-29T03:13:28;3.00;;;2.80;;
5696;SDS011;2873;50.966;7.210;2023-03-29T03:15:54;3.72;;;3.40;;
5696;SDS011;2873;50.966;7.210;2023-03-29T03:18:20;3.47;;;3.17;;
5696;SDS011;2873;50.966;7.210;2023-03-29T03:20:56;4.38;;;3.00;;
5696;SDS011;2873;50.966;7.210;2023-03-29T03:23:23;2.70;;;2.50;;
5696;SDS011;2873;50.966;7.210;2023-03-29T03:25:49;4.57;;;3.50;;
5696;SDS011;2873;50.966;7.210;2023-03-29T03:28:16;2.97;;;2.77;;
5696;SDS011;2873;50.966;7.210;2023-03-29T03:30:42;4.82;;;3.03;;
5696;SDS011;2873;50.966;7.210;2023-03-29T03:33:07;4.80;;;3.40;;
5696;SDS011;2873;50.966;7.210;2023-03-29T03:35:33;4.63;;;3.40;;
5696;SDS011;2873;50.966;7.210;2023-03-29T03:37:59;4.93;;;4.00;;
5696;SDS011;2873;50.966;7.210;2023-03-29T03:40:25;3.67;;;2.92;;
5696;SDS011;2873;50.966;7.210;2023-03-29T03:42:51;4.45;;;3.50;;
5696;SDS011;2873;50.966;7.210;2023-03-29T03:45:16;3.90;;;3.23;;
5696;SDS011;2873;50.966;7.210;2023-03-29T03:47:42;4.05;;;3.10;;
5696;SDS011;2873;50.966;7.210;2023-03-29T03:50:08;2.73;;;2.60;;
5696;SDS011;2873;50.966;7.210;2023-03-29T03:52:33;5.90;;;3.63;;
5696;SDS011;2873;50.966;7.210;2023-03-29T03:54:59;3.75;;;2.58;;
5696;SDS011;2873;50.966;7.210;2023-03-29T03:57:26;6.60;;;3.20;;
5696;SDS011;2873;50.966;7.210;2023-03-29T03:59:52;3.70;;;3.30;;
5696;SDS011;2873;50.966;7.210;2023-03-29T04:02:17;5.47;;;4.10;;
5696;SDS011;2873;50.966;7.210;2023-03-29T04:04:44;3.92;;;3.63;;
5696;SDS011;2873;50.966;7.210;2023-03-29T04:07:10;3.53;;;3.22;;
5696;SDS011;2873;50.966;7.210;2023-03-29T04:09:38;4.22;;;3.83;;
5696;SDS011;2873;50.966;7.210;2023-03-29T04:12:03;4.25;;;3.20;;
5696;SDS011;2873;50.966;7.210;2023-03-29T04:14:29;5.20;;;4.20;;
5696;SDS011;2873;50.966;7.210;2023-03-29T04:16:56;5.40;;;3.78;;
5696;SDS011;2873;50.966;7.210;2023-03-29T04:19:21;3.93;;;3.37;;
5696;SDS011;2873;50.966;7.210;2023-03-29T04:21:47;6.88;;;4.15;;
5696;SDS011;2873;50.966;7.210;2023-03-29T04:24:13;5.60;;;4.28;;
5696;SDS011;2873;50.966;7.210;2023-03-29T04:26:40;5.70;;;4.20;;
5696;SDS011;2873;50.966;7.210;2023-03-29T04:29:05;5.78;;;3.88;;
5696;SDS011;2873;50.966;7.210;2023-03-29T04:31:31;4.68;;;3.83;;
5696;SDS011;2873;50.966;7.210;2023-03-29T04:33:57;5.67;;;4.30;;
5696;SDS011;2873;50.966;7.210;2023-03-29T04:36:23;4.20;;;3.80;;
5696;SDS011;2873;50.966;7.210;2023-03-29T04:38:49;4.35;;;3.72;;
5696;SDS011;2873;50.966;7.210;2023-03-29T04:41:18;5.38;;;3.15;;
5696;SDS011;2873;50.966;7.210;2023-03-29T04:43:44;3.50;;;3.13;;
5696;SDS011;2873;50.966;7.210;2023-03-29T04:46:11;4.32;;;2.65;;
5696;SDS011;2873;50.966;7.210;2023-03-29T04:48:37;2.97;;;2.70;;
5696;SDS011;2873;50.966;7.210;2023-03-29T04:51:03;4.32;;;2.47;;
5696;SDS011;2873;50.966;7.210;2023-03-29T04:53:29;3.90;;;2.60;;
5696;SDS011;2873;50.966;7.210;2023-03-29T04:55:55;3.73;;;2.40;;
5696;SDS011;2873;50.966;7.210;2023-03-29T04:58:22;3.60;;;2.63;;
5696;SDS011;2873;50.966;7.210;2023-03-29T05:00:48;4.73;;;2.67;;
5696;SDS011;2873;50.966;7.210;2023-03-29T05:03:13;4.50;;;2.83;;
5696;SDS011;2873;50.966;7.210;2023-03-29T05:05:39;6.53;;;2.67;;
5696;SDS011;2873;50.966;7.210;2023-03-29T05:08:05;3.30;;;3.00;;
5696;SDS011;2873;50.966;7.210;2023-03-29T05:10:33;5.65;;;3.00;;
5696;SDS011;2873;50.966;7.210;2023-03-29T05:13:00;3.50;;;3.10;;
5696;SDS011;2873;50.966;7.210;2023-03-29T05:15:25;4.20;;;3.10;;
5696;SDS011;2873;50.966;7.210;2023-03-29T05:17:51;2.95;;;2.75;;
5696;SDS011;2873;50.966;7.210;2023-03-29T05:20:17;4.55;;;3.10;;
5696;SDS011;2873;50.966;7.210;2023-03-29T05:22:42;3.30;;;2.50;;
5696;SDS011;2873;50.966;7.210;2023-03-29T05:25:08;3.42;;;3.05;;
5696;SDS011;2873;50.966;7.210;2023-03-29T05:27:35;3.83;;;2.92;;
5696;SDS011;2873;50.966;7.210;2023-03-29T05:30:01;3.80;;;2.60;;
5696;SDS011;2873;50.966;7.210;2023-03-29T05:32:27;6.18;;;2.90;;
5696;SDS011;2873;50.966;7.210;2023-03-29T05:34:53;4.57;;;2.97;;
5696;SDS011;2873;50.966;7.210;2023-03-29T05:37:18;4.45;;;3.00;;
5696;SDS011;2873;50.966;7.210;2023-03-29T05:39:44;4.23;;;3.20;;
5696;SDS011;2873;50.966;7.210;2023-03-29T05:42:10;9.97;;;3.10;;
5696;SDS011;2873;50.966;7.210;2023-03-29T05:44:39;3.83;;;3.00;;
5696;SDS011;2873;50.966;7.210;2023-03-29T05:47:05;3.30;;;2.75;;
5696;SDS011;2873;50.966;7.210;2023-03-29T05:49:31;5.95;;;2.83;;
5696;SDS011;2873;50.966;7.210;2023-03-29T05:51:57;2.83;;;2.63;;
5696;SDS011;2873;50.966;7.210;2023-03-29T05:54:23;3.57;;;3.27;;
5696;SDS011;2873;50.966;7.210;2023-03-29T05:56:49;3.70;;;3.30;;
5696;SDS011;2873;50.966;7.210;2023-03-29T05:59:15;4.43;;;3.27;;
5696;SDS011;2873;50.966;7.210;2023-03-29T06:01:41;5.82;;;3.40;;
5696;SDS011;2873;50.966;7.210;2023-03-29T06:04:09;3.33;;;3.00;;
5696;SDS011;2873;50.966;7.210;2023-03-29T06:06:36;5.80;;;2.80;;
5696;SDS011;2873;50.966;7.210;2023-03-29T06:09:01;6.18;;;3.10;;
5696;SDS011;2873;50.966;7.210;2023-03-29T06:11:27;5.10;;;3.17;;
5696;SDS011;2873;50.966;7.210;2023-03-29T06:13:52;3.38;;;2.90;;
5696;SDS011;2873;50.966;7.210;2023-03-29T06:16:18;2.67;;;2.47;;
5696;SDS011;2873;50.966;7.210;2023-03-29T06:18:44;2.92;;;2.72;;
5696;SDS011;2873;50.966;7.210;2023-03-29T06:21:09;3.67;;;3.37;;
5696;SDS011;2873;50.966;7.210;2023-03-29T06:23:35;3.50;;;2.85;;
5696;SDS011;2873;50.966;7.210;2023-03-29T06:26:00;5.90;;;3.00;;
5696;SDS011;2873;50.966;7.210;2023-03-29T06:28:26;6.13;;;4.15;;
5696;SDS011;2873;50.966;7.210;2023-03-29T06:30:52;5.33;;;3.40;;
5696;SDS011;2873;50.966;7.210;2023-03-29T06:33:20;4.03;;;3.70;;
5696;SDS011;2873;50.966;7.210;2023-03-29T06:35:49;4.20;;;3.30;;
5696;SDS011;2873;50.966;7.210;2023-03-29T06:38:15;9.20;;;3.42;;
5696;SDS011;2873;50.966;7.210;2023-03-29T06:40:41;7.30;;;3.40;;
5696;SDS011;2873;50.966;7.210;2023-03-29T06:43:08;4.78;;;2.78;;
5696;SDS011;2873;50.966;7.210;2023-03-29T06:45:35;3.53;;;3.10;;
5696;SDS011;2873;50.966;7.210;2023-03-29T06:48:02;3.90;;;3.00;;
5696;SDS011;2873;50.966;7.210;2023-03-29T06:50:30;6.45;;;3.40;;
5696;SDS011;2873;50.966;7.210;2023-03-29T06:52:56;3.63;;;3.20;;
5696;SDS011;2873;50.966;7.210;2023-03-29T06:55:22;4.67;;;3.27;;
5696;SDS011;2873;50.966;7.210;2023-03-29T06:57:48;4.18;;;3.03;;
5696;SDS011;2873;50.966;7.210;2023-03-29T07:00:14;3.20;;;2.90;;
5696;SDS011;2873;50.966;7.210;2023-03-29T07:02:43;3.30;;;3.10;;
5696;SDS011;2873;50.966;7.210;2023-03-29T07:05:09;3.33;;;2.90;;
5696;SDS011;2873;50.966;7.210;2023-03-29T07:07:38;4.50;;;3.10;;
5696;SDS011;2873;50.966;7.210;2023-03-29T07:10:24;3.25;;;2.95;;
5696;SDS011;2873;50.966;7.210;2023-03-29T07:12:52;3.58;;;3.25;;
5696;SDS011;2873;50.966;7.210;2023-03-29T07:15:18;8.27;;;3.65;;
5696;SDS011;2873;50.966;7.210;2023-03-29T07:17:45;6.70;;;3.10;;
5696;SDS011;2873;50.966;7.210;2023-03-29T07:20:11;3.45;;;2.97;;
5696;SDS011;2873;50.966;7.210;2023-03-29T07:22:41;4.20;;;3.00;;
5696;SDS011;2873;50.966;7.210;2023-03-29T07:25:07;3.40;;;3.10;;
5696;SDS011;2873;50.966;7.210;2023-03-29T07:27:35;6.10;;;3.45;;
5696;SDS011;2873;50.966;7.210;2023-03-29T07:30:01;3.78;;;3.47;;
5696;SDS011;2873;50.966;7.210;2023-03-29T07:32:29;10.00;;;3.90;;
5696;SDS011;2873;50.966;7.210;2023-03-29T07:34:55;5.32;;;3.08;;
5696;SDS011;2873;50.966;7.210;2023-03-29T07:37:20;3.50;;;3.20;;
5696;SDS011;2873;50.966;7.210;2023-03-29T07:39:46;3.10;;;2.80;;
5696;SDS011;2873;50.966;7.210;2023-03-29T07:42:11;4.60;;;2.95;;
5696;SDS011;2873;50.966;7.210;2023-03-29T07:44:37;4.43;;;3.00;;
5696;SDS011;2873;50.966;7.210;2023-03-29T07:47:03;3.63;;;2.88;;
5696;SDS011;2873;50.966;7.210;2023-03-29T07:49:29;6.85;;;3.35;;
5696;SDS011;2873;50.966;7.210;2023-03-29T07:51:55;3.67;;;2.90;;
5696;SDS011;2873;50.966;7.210;2023-03-29T07:54:21;3.00;;;2.80;;
5696;SDS011;2873;50.966;7.210;2023-03-29T07:56:47;5.40;;;2.60;;
5696;SDS011;2873;50.966;7.210;2023-03-29T07:59:13;3.10;;;2.90;;
5696;SDS011;2873;50.966;7.210;2023-03-29T08:01:39;5.00;;;3.10;;
5696;SDS011;2873;50.966;7.210;2023-03-29T08:04:08;3.40;;;3.10;;
5696;SDS011;2873;50.966;7.210;2023-03-29T08:06:34;4.50;;;3.33;;
5696;SDS011;2873;50.966;7.210;2023-03-29T08:08:59;5.40;;;3.20;;
5696;SDS011;2873;50.966;7.210;2023-03-29T08:11:25;5.82;;;2.60;;
5696;SDS011;2873;50.966;7.210;2023-03-29T08:13:51;5.88;;;3.10;;
5696;SDS011;2873;50.966;7.210;2023-03-29T08:16:17;3.43;;;2.80;;
5696;SDS011;2873;50.966;7.210;2023-03-29T08:18:42;5.35;;;2.97;;
5696;SDS011;2873;50.966;7.210;2023-03-29T08:21:08;4.40;;;3.08;;
5696;SDS011;2873;50.966;7.210;2023-03-29T08:23:34;3.37;;;3.00;;
5696;SDS011;2873;50.966;7.210;2023-03-29T08:25:59;5.28;;;3.40;;
5696;SDS011;2873;50.966;7.210;2023-03-29T08:28:25;5.20;;;3.10;;
5696;SDS011;2873;50.966;7.210;2023-03-29T08:30:50;5.80;;;3.10;;
5696;SDS011;2873;50.966;7.210;2023-03-29T08:33:16;5.10;;;3.00;;
5696;SDS011;2873;50.966;7.210;2023-03-29T08:35:42;4.40;;;3.10;;
5696;SDS011;2873;50.966;7.210;2023-03-29T08:38:08;7.03;;;3.00;;
5696;SDS011;2873;50.966;7.210;2023-03-29T08:40:34;4.10;;;2.90;;
5696;SDS011;2873;50.966;7.210;2023-03-29T08:48:35;4.25;;;3.47;;
5696;SDS011;2873;50.966;7.210;2023-03-29T08:51:13;7.97;;;3.40;;
5696;SDS011;2873;50.966;7.210;2023-03-29T08:53:46;4.13;;;2.92;;
5696;SDS011;2873;50.966;7.210;2023-03-29T08:56:26;7.75;;;3.40;;
5696;SDS011;2873;50.966;7.210;2023-03-29T08:58:55;5.20;;;2.80;;
5696;SDS011;2873;50.966;7.210;2023-03-29T09:01:22;3.22;;;3.03;;
5696;SDS011;2873;50.966;7.210;2023-03-29T09:04:34;5.07;;;3.08;;
5696;SDS011;2873;50.966;7.210;2023-03-29T09:06:42;3.45;;;3.00;;
5696;SDS011;2873;50.966;7.210;2023-03-29T09:09:12;3.95;;;3.20;;
5696;SDS011;2873;50.966;7.210;2023-03-29T09:12:26;4.17;;;3.40;;
5696;SDS011;2873;50.966;7.210;2023-03-29T09:20:10;4.10;;;3.00;;
5696;SDS011;2873;50.966;7.210;2023-03-29T09:28:16;4.68;;;3.03;;
5696;SDS011;2873;50.966;7.210;2023-03-29T09:30:50;4.25;;;2.67;;
5696;SDS011;2873;50.966;7.210;2023-03-29T09:33:25;5.45;;;2.80;;
5696;SDS011;2873;50.966;7.210;2023-03-29T09:36:00;4.20;;;3.30;;
5696;SDS011;2873;50.966;7.210;2023-03-29T09:38:48;3.90;;;3.30;;
5696;SDS011;2873;50.966;7.210;2023-03-29T09:41:29;4.00;;;2.92;;
5696;SDS011;2873;50.966;7.210;2023-03-29T09:44:22;2.90;;;2.53;;
5696;SDS011;2873;50.966;7.210;2023-03-29T09:46:59;4.00;;;2.90;;
5696;SDS011;2873;50.966;7.210;2023-03-29T09:49:31;7.93;;;3.22;;
5696;SDS011;2873;50.966;7.210;2023-03-29T09:52:01;5.00;;;3.10;;
5696;SDS011;2873;50.966;7.210;2023-03-29T09:54:32;6.00;;;3.20;;
5696;SDS011;2873;50.966;7.210;2023-03-29T09:56:58;4.37;;;2.77;;
5696;SDS011;2873;50.966;7.210;2023-03-29T09:59:23;5.47;;;2.90;;
5696;SDS011;2873;50.966;7.210;2023-03-29T10:01:49;4.13;;;2.80;;
5696;SDS011;2873;50.966;7.210;2023-03-29T10:04:15;7.45;;;3.10;;
5696;SDS011;2873;50.966;7.210;2023-03-29T10:06:43;7.00;;;3.30;;
5696;SDS011;2873;50.966;7.210;2023-03-29T10:09:14;5.68;;;3.00;;
5696;SDS011;2873;50.966;7.210;2023-03-29T10:11:47;3.10;;;2.85;;
5696;SDS011;2873;50.966;7.210;2023-03-29T10:14:30;3.47;;;3.03;;
5696;SDS011;2873;50.966;7.210;2023-03-29T10:17:02;4.40;;;3.20;;
5696;SDS011;2873;50.966;7.210;2023-03-29T10:22:06;3.88;;;2.92;;
5696;SDS011;2873;50.966;7.210;2023-03-29T10:24:40;8.35;;;3.30;;
5696;SDS011;2873;50.966;7.210;2023-03-29T10:27:13;4.53;;;3.00;;
5696;SDS011;2873;50.966;7.210;2023-03-29T10:29:39;5.07;;;2.70;;
5696;SDS011;2873;50.966;7.210;2023-03-29T10:32:16;3.72;;;2.70;;
5696;SDS011;2873;50.966;7.210;2023-03-29T10:34:45;5.90;;;3.10;;
5696;SDS011;2873;50.966;7.210;2023-03-29T10:37:11;5.60;;;2.95;;
5696;SDS011;2873;50.966;7.210;2023-03-29T10:39:40;5.90;;;3.40;;
5696;SDS011;2873;50.966;7.210;2023-03-29T10:42:06;5.20;;;3.20;;
5696;SDS011;2873;50.966;7.210;2023-03-29T10:44:41;6.10;;;3.80;;
5696;SDS011;2873;50.966;7.210;2023-03-29T10:47:17;6.13;;;3.20;;
5696;SDS011;2873;50.966;7.210;2023-03-29T10:49:45;4.47;;;3.67;;
5696;SDS011;2873;50.966;7.210;2023-03-29T10:52:18;3.42;;;2.90;;
5696;SDS011;2873;50.966;7.210;2023-03-29T10:54:44;3.35;;;2.90;;
5696;SDS011;2873;50.966;7.210;2023-03-29T10:57:12;9.70;;;3.60;;
5696;SDS011;2873;50.966;7.210;2023-03-29T11:02:52;6.95;;;3.70;;
5696;SDS011;2873;50.966;7.210;2023-03-29T11:11:36;4.57;;;3.20;;
5696;SDS011;2873;50.966;7.210;2023-03-29T11:14:26;5.97;;;3.40;;
5696;SDS011;2873;50.966;7.210;2023-03-29T11:20:00;6.28;;;3.30;;
5696;SDS011;2873;50.966;7.210;2023-03-29T11:25:39;7.55;;;3.30;;
5696;SDS011;2873;50.966;7.210;2023-03-29T11:33:50;5.10;;;3.05;;
5696;SDS011;2873;50.966;7.210;2023-03-29T11:36:30;5.40;;;2.90;;
5696;SDS011;2873;50.966;7.210;2023-03-29T11:42:02;3.40;;;3.10;;
5696;SDS011;2873;50.966;7.210;2023-03-29T11:44:36;4.70;;;3.70;;
5696;SDS011;2873;50.966;7.210;2023-03-29T11:47:17;3.63;;;3.30;;
5696;SDS011;2873;50.966;7.210;2023-03-29T11:49:53;5.25;;;3.50;;
5696;SDS011;2873;50.966;7.210;2023-03-29T11:52:32;7.28;;;3.47;;
5696;SDS011;2873;50.966;7.210;2023-03-29T11:55:03;9.40;;;3.50;;
5696;SDS011;2873;50.966;7.210;2023-03-29T11:57:41;7.25;;;3.40;;
5696;SDS011;2873;50.966;7.210;2023-03-29T12:03:05;14.27;;;3.70;;
5696;SDS011;2873;50.966;7.210;2023-03-29T12:06:05;7.70;;;3.20;;
5696;SDS011;2873;50.966;7.210;2023-03-29T12:08:49;4.60;;;2.77;;
5696;SDS011;2873;50.966;7.210;2023-03-29T12:17:00;8.20;;;3.00;;
5696;SDS011;2873;50.966;7.210;2023-03-29T12:19:29;4.30;;;2.90;;
5696;SDS011;2873;50.966;7.210;2023-03-29T12:21:59;4.03;;;3.10;;
5696;SDS011;2873;50.966;7.210;2023-03-29T12:24:26;3.70;;;2.70;;
5696;SDS011;2873;50.966;7.210;2023-03-29T12:27:11;6.13;;;2.80;;
5696;SDS011;2873;50.966;7.210;2023-03-29T12:30:18;3.47;;;2.60;;
5696;SDS011;2873;50.966;7.210;2023-03-29T12:32:57;2.53;;;2.33;;
5696;SDS011;2873;50.966;7.210;2023-03-29T12:39:10;3.47;;;2.60;;
5696;SDS011;2873;50.966;7.210;2023-03-29T12:41:39;3.25;;;2.95;;
5696;SDS011;2873;50.966;7.210;2023-03-29T12:44:10;6.00;;;3.83;;
5696;SDS011;2873;50.966;7.210;2023-03-29T12:46:38;8.48;;;4.05;;
5696;SDS011;2873;50.966;7.210;2023-03-29T12:51:59;4.47;;;2.53;;
5696;SDS011;2873;50.966;7.210;2023-03-29T12:54:29;4.30;;;2.60;;
5696;SDS011;2873;50.966;7.210;2023-03-29T12:56:59;4.97;;;2.80;;
5696;SDS011;2873;50.966;7.210;2023-03-29T12:59:46;5.88;;;3.10;;
5696;SDS011;2873;50.966;7.210;2023-03-29T13:07:14;8.32;;;3.10;;
5696;SDS011;2873;50.966;7.210;2023-03-29T13:09:50;3.35;;;2.40;;
5696;SDS011;2873;50.966;7.210;2023-03-29T13:13:06;4.13;;;2.47;;
5696;SDS011;2873;50.966;7.210;2023-03-29T13:23:16;2.30;;;1.75;;
5696;SDS011;2873;50.966;7.210;2023-03-29T13:31:32;1.60;;;1.50;;
5696;SDS011;2873;50.966;7.210;2023-03-29T13:39:53;1.60;;;1.42;;
5696;SDS011;2873;50.966;7.210;2023-03-29T13:42:23;3.00;;;2.03;;
5696;SDS011;2873;50.966;7.210;2023-03-29T13:44:49;2.25;;;1.60;;
5696;SDS011;2873;50.966;7.210;2023-03-29T13:49:58;1.55;;;1.42;;
5696;SDS011;2873;50.966;7.210;2023-03-29T13:52:31;3.17;;;1.70;;
5696;SDS011;2873;50.966;7.210;2023-03-29T13:55:36;3.08;;;1.48;;
5696;SDS011;2873;50.966;7.210;2023-03-29T13:57:56;2.55;;;1.50;;
5696;SDS011;2873;50.966;7.210;2023-03-29T14:00:27;1.80;;;1.70;;
5696;SDS011;2873;50.966;7.210;2023-03-29T14:02:56;2.40;;;1.60;;
5696;SDS011;2873;50.966;7.210;2023-03-29T14:05:29;2.88;;;1.40;;
5696;SDS011;2873;50.966;7.210;2023-03-29T14:08:00;3.97;;;1.50;;
5696;SDS011;2873;50.966;7.210;2023-03-29T14:10:48;2.58;;;1.73;;
5696;SDS011;2873;50.966;7.210;2023-03-29T14:13:18;2.40;;;1.60;;
5696;SDS011;2873;50.966;7.210;2023-03-29T14:15:54;2.93;;;1.37;;
5696;SDS011;2873;50.966;7.210;2023-03-29T14:18:26;4.60;;;1.60;;
5696;SDS011;2873;50.966;7.210;2023-03-29T14:20:57;1.70;;;1.60;;
5696;SDS011;2873;50.966;7.210;2023-03-29T14:23:26;2.45;;;1.60;;
5696;SDS011;2873;50.966;7.210;2023-03-29T14:25:54;1.83;;;1.47;;
5696;SDS011;2873;50.966;7.210;2023-03-29T14:28:42;2.10;;;1.90;;
5696;SDS011;2873;50.966;7.210;2023-03-29T14:31:17;3.63;;;1.60;;
5696;SDS011;2873;50.966;7.210;2023-03-29T14:33:51;2.43;;;1.70;;
5696;SDS011;2873;50.966;7.210;2023-03-29T14:36:17;3.00;;;1.40;;
5696;SDS011;2873;50.966;7.210;2023-03-29T14:38:45;3.80;;;1.42;;
5696;SDS011;2873;50.966;7.210;2023-03-29T14:41:14;5.25;;;1.80;;
5696;SDS011;2873;50.966;7.210;2023-03-29T14:43:41;2.10;;;1.40;;
5696;SDS011;2873;50.966;7.210;2023-03-29T14:46:07;1.40;;;1.20;;
5696;SDS011;2873;50.966;7.210;2023-03-29T14:48:34;2.60;;;1.50;;
5696;SDS011;2873;50.966;7.210;2023-03-29T14:51:01;2.20;;;1.70;;
5696;SDS011;2873;50.966;7.210;2023-03-29T14:53:28;2.30;;;1.50;;
5696;SDS011;2873;50.966;7.210;2023-03-29T14:55:56;1.63;;;1.52;;
5696;SDS011;2873;50.966;7.210;2023-03-29T14:58:23;4.93;;;1.42;;
5696;SDS011;2873;50.966;7.210;2023-03-29T15:00:53;1.90;;;1.30;;
5696;SDS011;2873;50.966;7.210;2023-03-29T15:03:19;3.33;;;1.73;;
5696;SDS011;2873;50.966;7.210;2023-03-29T15:05:51;1.90;;;1.70;;
5696;SDS011;2873;50.966;7.210;2023-03-29T15:08:30;3.50;;;1.60;;
5696;SDS011;2873;50.966;7.210;2023-03-29T15:10:58;4.72;;;1.75;;
5696;SDS011;2873;50.966;7.210;2023-03-29T15:13:24;2.05;;;1.50;;
5696;SDS011;2873;50.966;7.210;2023-03-29T15:15:52;1.70;;;1.40;;
5696;SDS011;2873;50.966;7.210;2023-03-29T15:18:29;2.00;;;1.40;;
5696;SDS011;2873;50.966;7.210;2023-03-29T15:20:58;1.92;;;1.50;;
5696;SDS011;2873;50.966;7.210;2023-03-29T15:23:25;1.30;;;1.10;;
5696;SDS011;2873;50.966;7.210;2023-03-29T15:26:13;2.10;;;1.20;;
5696;SDS011;2873;50.966;7.210;2023-03-29T15:28:46;1.75;;;1.60;;
5696;SDS011;2873;50.966;7.210;2023-03-29T15:31:20;2.95;;;1.40;;
5696;SDS011;2873;50.966;7.210;2023-03-29T15:34:02;2.50;;;1.40;;
5696;SDS011;2873;50.966;7.210;2023-03-29T15:36:43;1.80;;;1.40;;
5696;SDS011;2873;50.966;7.210;2023-03-29T15:39:10;3.10;;;1.60;;
5696;SDS011;2873;50.966;7.210;2023-03-29T15:41:37;2.38;;;1.70;;
5696;SDS011;2873;50.966;7.210;2023-03-29T15:44:05;1.90;;;1.23;;
5696;SDS011;2873;50.966;7.210;2023-03-29T15:46:31;3.40;;;1.60;;
5696;SDS011;2873;50.966;7.210;2023-03-29T15:48:57;1.77;;;1.65;;
5696;SDS011;2873;50.966;7.210;2023-03-29T15:51:22;4.28;;;1.75;;
5696;SDS011;2873;50.966;7.210;2023-03-29T15:53:48;2.00;;;1.80;;
5696;SDS011;2873;50.966;7.210;2023-03-29T15:56:15;2.47;;;1.60;;
5696;SDS011;2873;50.966;7.210;2023-03-29T15:58:44;3.78;;;1.80;;
5696;SDS011;2873;50.966;7.210;2023-03-29T16:01:29;2.25;;;2.05;;
5696;SDS011;2873;50.966;7.210;2023-03-29T16:04:14;2.90;;;1.70;;
5696;SDS011;2873;50.966;7.210;2023-03-29T16:06:42;3.50;;;2.13;;
5696;SDS011;2873;50.966;7.210;2023-03-29T16:09:09;2.72;;;1.90;;
5696;SDS011;2873;50.966;7.210;2023-03-29T16:11:36;4.28;;;1.92;;
5696;SDS011;2873;50.966;7.210;2023-03-29T16:14:04;2.20;;;2.10;;
5696;SDS011;2873;50.966;7.210;2023-03-29T16:16:48;3.22;;;1.90;;
5696;SDS011;2873;50.966;7.210;2023-03-29T16:19:14;2.53;;;2.00;;
5696;SDS011;2873;50.966;7.210;2023-03-29T16:21:40;2.50;;;2.20;;
5696;SDS011;2873;50.966;7.210;2023-03-29T16:24:08;3.35;;;1.90;;
5696;SDS011;2873;50.966;7.210;2023-03-29T16:26:38;2.75;;;2.17;;
5696;SDS011;2873;50.966;7.210;2023-03-29T16:29:03;3.30;;;2.00;;
5696;SDS011;2873;50.966;7.210;2023-03-29T16:31:29;4.37;;;3.00;;
5696;SDS011;2873;50.966;7.210;2023-03-29T16:33:55;5.17;;;2.00;;
5696;SDS011;2873;50.966;7.210;2023-03-29T16:36:20;2.95;;;2.65;;
5696;SDS011;2873;50.966;7.210;2023-03-29T16:38:46;4.85;;;2.20;;
5696;SDS011;2873;50.966;7.210;2023-03-29T16:41:13;3.40;;;2.17;;
5696;SDS011;2873;50.966;7.210;2023-03-29T16:43:40;2.10;;;2.00;;
5696;SDS011;2873;50.966;7.210;2023-03-29T16:46:07;4.93;;;2.50;;
5696;SDS011;2873;50.966;7.210;2023-03-29T16:48:34;3.83;;;2.90;;
5696;SDS011;2873;50.966;7.210;2023-03-29T16:51:00;4.03;;;2.70;;
5696;SDS011;2873;50.966;7.210;2023-03-29T16:53:26;5.57;;;3.37;;
5696;SDS011;2873;50.966;7.210;2023-03-29T16:55:52;5.38;;;3.78;;
5696;SDS011;2873;50.966;7.210;2023-03-29T16:58:18;6.00;;;3.60;;
5696;SDS011;2873;50.966;7.210;2023-03-29T17:00:44;3.35;;;3.15;;
5696;SDS011;2873;50.966;7.210;2023-03-29T17:03:09;9.80;;;4.90;;
5696;SDS011;2873;50.966;7.210;2023-03-29T17:05:35;10.30;;;5.70;;
5696;SDS011;2873;50.966;7.210;2023-03-29T17:08:05;12.93;;;4.90;;
5696;SDS011;2873;50.966;7.210;2023-03-29T17:10:33;14.20;;;6.63;;
5696;SDS011;2873;50.966;7.210;2023-03-29T17:12:59;3.08;;;2.50;;
5696;SDS011;2873;50.966;7.210;2023-03-29T17:15:25;4.00;;;2.40;;
5696;SDS011;2873;50.966;7.210;2023-03-29T17:17:50;4.45;;;2.40;;